createdAt,value
2022-09-13T00:01:26.479Z,4.03
2022-09-13T00:03:53.238Z,8.27
2022-09-13T00:06:20.120Z,5.85
2022-09-13T00:08:49.510Z,7.05
2022-09-13T00:11:23.971Z,3.17
2022-09-13T00:13:53.175Z,5.20
2022-09-13T00:16:20.806Z,5.18
2022-09-13T00:18:48.111Z,2.88
2022-09-13T00:21:16.227Z,4.75
2022-09-13T00:23:50.134Z,5.72
2022-09-13T00:26:18.733Z,5.03
2022-09-13T00:28:45.915Z,6.10
2022-09-13T00:31:12.486Z,5.43
2022-09-13T00:33:39.214Z,3.70
2022-09-13T00:36:06.705Z,4.28
2022-09-13T00:38:35.169Z,3.88
2022-09-13T00:41:02.986Z,5.80
2022-09-13T00:43:41.937Z,6.35
2022-09-13T00:46:09.036Z,3.42
2022-09-13T00:48:36.395Z,5.78
2022-09-13T00:51:03.827Z,4.90
2022-09-13T00:53:34.023Z,5.53
2022-09-13T00:56:02.576Z,3.53
2022-09-13T00:58:29.134Z,3.13
2022-09-13T01:00:57.854Z,3.67
2022-09-13T01:03:28.692Z,3.50
2022-09-13T01:06:16.949Z,4.75
2022-09-13T01:08:46.130Z,5.60
2022-09-13T01:11:16.570Z,4.72
2022-09-13T01:13:43.301Z,5.40
2022-09-13T01:16:10.155Z,4.00
2022-09-13T01:18:37.358Z,5.13
2022-09-13T01:21:07.336Z,5.47
2022-09-13T01:23:36.683Z,4.93
2022-09-13T01:26:22.275Z,3.88
2022-09-13T01:29:01.705Z,4.75
2022-09-13T01:31:40.437Z,5.40
2022-09-13T01:34:13.182Z,6.38
2022-09-13T01:36:39.728Z,4.15
2022-09-13T01:39:08.214Z,3.97
2022-09-13T01:41:47.672Z,3.65
2022-09-13T01:44:15.023Z,4.85
2022-09-13T01:46:41.522Z,3.88
2022-09-13T01:49:24.620Z,4.20
2022-09-13T01:51:56.482Z,5.32
2022-09-13T01:54:31.922Z,5.07
2022-09-13T01:57:12.326Z,2.80
2022-09-13T01:59:57.673Z,3.42
2022-09-13T02:02:31.797Z,3.65
2022-09-13T02:05:21.309Z,5.43
2022-09-13T02:07:55.016Z,5.85
2022-09-13T02:10:31.147Z,4.10
2022-09-13T02:12:58.531Z,3.42
2022-09-13T02:15:48.718Z,3.40
2022-09-13T02:18:30.920Z,5.60
2022-09-13T02:21:00.582Z,4.03
2022-09-13T02:23:31.763Z,5.53
2022-09-13T02:26:00.157Z,2.97
2022-09-13T02:28:29.016Z,3.65
2022-09-13T02:30:58.069Z,3.72
2022-09-13T02:33:36.595Z,6.03
2022-09-13T02:36:06.485Z,4.68
2022-09-13T02:38:34.957Z,4.35
2022-09-13T02:41:09.980Z,3.90
2022-09-13T02:43:42.107Z,3.17
2022-09-13T02:46:21.875Z,4.32
2022-09-13T02:48:52.652Z,3.10
2022-09-13T02:51:19.673Z,5.45
2022-09-13T02:53:49.311Z,3.88
2022-09-13T02:56:42.203Z,2.35
2022-09-13T02:59:14.075Z,4.05
2022-09-13T03:01:41.894Z,3.47
2022-09-13T03:04:08.698Z,2.78
2022-09-13T03:06:35.254Z,2.75
2022-09-13T03:09:05.121Z,2.65
2022-09-13T03:11:50.115Z,3.05
2022-09-13T03:14:46.002Z,4.30
2022-09-13T03:17:15.583Z,2.22
2022-09-13T03:19:45.135Z,2.80
2022-09-13T03:22:11.654Z,3.13
2022-09-13T03:24:51.849Z,2.30
2022-09-13T03:27:23.770Z,2.83
2022-09-13T03:30:00.034Z,3.00
2022-09-13T03:32:32.006Z,2.55
2022-09-13T03:35:03.283Z,3.47
2022-09-13T03:37:51.035Z,3.08
2022-09-13T03:40:21.978Z,2.83
2022-09-13T03:42:53.444Z,4.38
2022-09-13T03:45:23.443Z,2.58
2022-09-13T03:47:50.378Z,2.95
2022-09-13T03:50:20.488Z,5.55
2022-09-13T03:52:48.674Z,2.85
2022-09-13T03:55:17.797Z,4.30
2022-09-13T03:57:44.875Z,2.78
2022-09-13T04:00:12.903Z,2.83
2022-09-13T04:02:39.564Z,3.15
2022-09-13T04:05:06.836Z,2.13
2022-09-13T04:07:33.386Z,2.83
2022-09-13T04:09:59.942Z,2.65
2022-09-13T04:12:28.574Z,4.55
2022-09-13T04:14:55.156Z,5.47
2022-09-13T04:17:21.717Z,2.88
2022-09-13T04:19:48.367Z,2.28
2022-09-13T04:22:15.023Z,4.82
2022-09-13T04:24:43.284Z,3.25
2022-09-13T04:27:09.827Z,3.25
2022-09-13T04:29:36.494Z,3.28
2022-09-13T04:32:03.213Z,2.58
2022-09-13T04:34:30.181Z,2.55
2022-09-13T04:36:57.095Z,2.88
2022-09-13T04:39:26.451Z,2.95
2022-09-13T04:41:54.827Z,2.00
2022-09-13T04:44:21.849Z,2.75
2022-09-13T04:46:49.058Z,2.20
2022-09-13T04:49:16.751Z,2.65
2022-09-13T04:51:43.475Z,4.03
2022-09-13T04:54:14.921Z,3.45
2022-09-13T04:56:42.744Z,4.18
2022-09-13T04:59:10.855Z,2.70
2022-09-13T05:01:37.447Z,3.97
2022-09-13T05:04:04.447Z,3.20
2022-09-13T05:06:31.026Z,2.17
2022-09-13T05:08:57.879Z,2.72
2022-09-13T05:11:25.794Z,2.42
2022-09-13T05:13:54.605Z,2.58
2022-09-13T05:16:22.030Z,2.92
2022-09-13T05:18:48.718Z,2.28
2022-09-13T05:21:15.469Z,2.05
2022-09-13T05:23:42.017Z,3.13
2022-09-13T05:26:08.788Z,3.47
2022-09-13T05:28:36.508Z,2.70
2022-09-13T05:31:18.557Z,3.28
2022-09-13T05:33:45.674Z,2.40
2022-09-13T05:36:12.311Z,2.45
2022-09-13T05:38:38.947Z,2.30
2022-09-13T05:41:05.804Z,2.67
2022-09-13T05:43:34.163Z,2.85
2022-09-13T05:46:08.299Z,4.28
2022-09-13T05:48:35.633Z,2.97
2022-09-13T05:51:06.471Z,6.47
2022-09-13T05:53:33.961Z,2.38
2022-09-13T05:56:00.780Z,4.43
2022-09-13T05:58:27.310Z,2.22
2022-09-13T06:00:55.011Z,2.15
2022-09-13T06:03:22.320Z,2.78
2022-09-13T06:05:48.911Z,4.72
2022-09-13T06:08:16.545Z,2.35
2022-09-13T06:10:43.067Z,2.78
2022-09-13T06:13:09.581Z,4.10
2022-09-13T06:15:40.088Z,2.65
2022-09-13T06:18:09.256Z,1.87
2022-09-13T06:20:35.834Z,8.60
2022-09-13T06:23:02.388Z,2.95
2022-09-13T06:25:30.992Z,2.80
2022-09-13T06:27:57.506Z,2.75
2022-09-13T06:30:24.090Z,2.90
2022-09-13T06:32:50.741Z,5.32
2022-09-13T06:35:17.925Z,2.47
2022-09-13T06:37:44.578Z,4.95
2022-09-13T06:40:11.297Z,5.55
2022-09-13T06:42:37.912Z,2.15
2022-09-13T06:45:04.987Z,4.65
2022-09-13T06:47:31.496Z,4.30
2022-09-13T06:49:58.701Z,3.25
2022-09-13T06:52:25.285Z,2.13
2022-09-13T06:54:52.094Z,3.65
2022-09-13T06:57:18.867Z,2.20
2022-09-13T06:59:45.577Z,2.85
2022-09-13T07:02:13.494Z,2.85
2022-09-13T07:04:40.089Z,3.38
2022-09-13T07:07:10.534Z,3.10
2022-09-13T07:09:37.202Z,4.78
2022-09-13T07:12:05.656Z,2.65
2022-09-13T07:14:32.280Z,2.47
2022-09-13T07:16:58.906Z,3.55
2022-09-13T07:19:29.191Z,2.15
2022-09-13T07:21:57.013Z,4.35
2022-09-13T07:24:24.049Z,2.70
2022-09-13T07:26:50.777Z,2.90
2022-09-13T07:29:19.776Z,2.63
2022-09-13T07:31:47.538Z,3.13
2022-09-13T07:34:15.046Z,2.72
2022-09-13T07:36:41.755Z,2.40
2022-09-13T07:39:13.588Z,3.10
2022-09-13T07:41:42.013Z,1.90
2022-09-13T07:44:10.401Z,2.17
2022-09-13T07:46:39.938Z,3.53
2022-09-13T07:49:06.879Z,4.57
2022-09-13T07:51:34.421Z,4.72
2022-09-13T07:54:02.441Z,3.60
2022-09-13T07:56:31.572Z,6.63
2022-09-13T07:59:00.786Z,6.40
2022-09-13T08:01:38.094Z,5.53
2022-09-13T08:04:06.370Z,5.65
2022-09-13T08:06:33.628Z,8.07
2022-09-13T08:09:00.398Z,6.80
2022-09-13T08:11:31.640Z,4.70
2022-09-13T08:13:59.024Z,9.02
2022-09-13T08:16:26.042Z,6.75
2022-09-13T08:18:53.755Z,8.98
2022-09-13T08:21:20.900Z,9.27
2022-09-13T08:23:47.724Z,8.57
2022-09-13T08:26:14.399Z,9.88
2022-09-13T08:28:42.245Z,8.10
2022-09-13T08:31:10.699Z,8.07
2022-09-13T08:33:37.868Z,6.80
2022-09-13T08:36:04.843Z,6.07
2022-09-13T08:38:31.603Z,7.22
2022-09-13T08:40:59.284Z,7.25
2022-09-13T08:43:34.854Z,6.35
2022-09-13T08:46:15.337Z,8.25
2022-09-13T08:48:44.322Z,6.07
2022-09-13T08:51:21.913Z,9.00
2022-09-13T08:53:48.909Z,6.78
2022-09-13T08:56:20.300Z,8.38
2022-09-13T08:59:05.474Z,9.70
2022-09-13T09:01:50.600Z,6.95
2022-09-13T09:04:20.300Z,5.65
2022-09-13T09:06:47.252Z,7.30
2022-09-13T09:09:16.594Z,4.78
2022-09-13T09:11:48.900Z,6.38
2022-09-13T09:14:18.491Z,9.85
2022-09-13T09:16:53.312Z,9.23
2022-09-13T09:19:27.300Z,6.22
2022-09-13T09:24:23.941Z,10.10
2022-09-13T09:26:50.988Z,8.02
2022-09-13T09:29:24.939Z,8.07
2022-09-13T09:32:13.112Z,7.32
2022-09-13T09:34:49.042Z,7.15
2022-09-13T09:37:22.719Z,11.93
2022-09-13T09:39:49.802Z,32.47
2022-09-13T09:42:18.556Z,44.78
2022-09-13T09:44:51.017Z,42.70
2022-09-13T09:47:20.178Z,47.17
2022-09-13T09:50:09.950Z,46.88
2022-09-13T09:52:44.067Z,35.45
2022-09-13T09:55:14.357Z,28.05
2022-09-13T09:57:50.064Z,30.65
2022-09-13T10:00:16.956Z,27.05
2022-09-13T10:02:43.880Z,20.88
2022-09-13T10:05:12.899Z,17.90
2022-09-13T10:07:40.969Z,21.92
2022-09-13T10:10:27.910Z,19.92
2022-09-13T10:12:56.247Z,9.23
2022-09-13T10:15:27.097Z,14.70
2022-09-13T10:18:03.388Z,13.15
2022-09-13T10:20:31.570Z,14.25
2022-09-13T10:23:11.785Z,12.25
2022-09-13T10:25:39.014Z,10.57
2022-09-13T10:28:10.489Z,11.93
2022-09-13T10:30:38.908Z,11.88
2022-09-13T10:33:06.031Z,10.98
2022-09-13T10:35:33.574Z,14.63
2022-09-13T10:38:00.676Z,11.32
2022-09-13T10:40:30.091Z,9.75
2022-09-13T10:42:58.047Z,9.52
2022-09-13T10:45:26.733Z,13.13
2022-09-13T10:48:03.761Z,17.45
2022-09-13T10:50:31.542Z,21.30
2022-09-13T10:53:01.334Z,25.80
2022-09-13T10:55:28.395Z,20.52
2022-09-13T10:58:15.456Z,24.42
2022-09-13T11:01:00.724Z,23.45
2022-09-13T11:03:33.691Z,25.33
2022-09-13T11:06:26.384Z,22.65
2022-09-13T11:09:01.587Z,15.52
2022-09-13T11:11:51.085Z,13.13
2022-09-13T11:14:19.729Z,14.57
2022-09-13T11:16:52.484Z,15.13
2022-09-13T11:19:37.683Z,15.70
2022-09-13T11:22:10.088Z,14.68
2022-09-13T11:24:53.252Z,11.55
2022-09-13T11:27:25.480Z,11.52
2022-09-13T11:30:11.540Z,9.23
2022-09-13T11:32:38.106Z,11.63
2022-09-13T11:35:16.489Z,11.15
2022-09-13T11:37:53.211Z,9.63
2022-09-13T11:40:25.513Z,7.57
2022-09-13T11:42:58.058Z,8.73
2022-09-13T11:45:26.004Z,8.43
2022-09-13T11:48:04.646Z,7.05
2022-09-13T11:50:33.993Z,9.13
2022-09-13T11:53:00.530Z,8.57
2022-09-13T11:55:40.784Z,7.32
2022-09-13T11:58:33.662Z,6.50
2022-09-13T12:01:02.647Z,10.05
2022-09-13T12:03:38.028Z,6.45
2022-09-13T12:06:07.436Z,4.25
2022-09-13T12:08:41.161Z,10.68
2022-09-13T12:11:23.480Z,7.25
2022-09-13T12:13:53.090Z,7.47
2022-09-13T12:16:25.413Z,7.63
2022-09-13T12:18:54.292Z,5.70
2022-09-13T12:21:23.644Z,7.72
2022-09-13T12:24:14.484Z,5.28
2022-09-13T12:26:54.706Z,6.03
2022-09-13T12:29:26.126Z,5.10
2022-09-13T12:31:56.162Z,8.07
2022-09-13T12:34:25.029Z,4.95
2022-09-13T12:36:57.340Z,5.22
2022-09-13T12:39:42.918Z,6.13
2022-09-13T12:42:21.634Z,6.22
2022-09-13T12:44:48.219Z,5.88
2022-09-13T12:47:20.622Z,6.78
2022-09-13T12:50:21.666Z,5.40
2022-09-13T12:53:00.919Z,5.88
2022-09-13T12:55:53.064Z,3.78
2022-09-13T12:58:39.916Z,4.68
2022-09-13T13:01:15.757Z,5.22
2022-09-13T13:03:50.135Z,6.40
2022-09-13T13:06:29.036Z,4.88
2022-09-13T13:08:57.017Z,4.63
2022-09-13T13:11:27.452Z,4.30
2022-09-13T13:13:54.112Z,11.95
2022-09-13T13:16:26.717Z,8.52
2022-09-13T13:18:54.480Z,4.63
2022-09-13T13:21:30.507Z,3.45
2022-09-13T13:24:26.154Z,7.13
2022-09-13T13:26:56.669Z,6.13
2022-09-13T13:29:33.068Z,7.82
2022-09-13T13:32:07.680Z,4.25
2022-09-13T13:34:39.366Z,5.68
2022-09-13T13:37:25.918Z,5.38
2022-09-13T13:40:11.420Z,6.65
2022-09-13T13:42:39.674Z,6.10
2022-09-13T13:45:14.794Z,6.13
2022-09-13T13:47:42.735Z,8.77
2022-09-13T13:50:12.193Z,7.55
2022-09-13T13:52:39.987Z,7.13
2022-09-13T13:55:25.329Z,5.00
2022-09-13T13:57:57.644Z,5.93
2022-09-13T14:00:27.208Z,7.22
2022-09-13T14:02:53.750Z,6.82
2022-09-13T14:05:20.330Z,6.35
2022-09-13T14:07:46.860Z,7.90
2022-09-13T14:10:18.270Z,8.45
2022-09-13T14:12:52.775Z,7.25
2022-09-13T14:15:29.830Z,5.47
2022-09-13T14:17:56.348Z,6.70
2022-09-13T14:20:25.194Z,8.23
2022-09-13T14:22:51.800Z,10.55
2022-09-13T14:25:18.340Z,4.75
2022-09-13T14:27:45.456Z,8.98
2022-09-13T14:30:20.068Z,9.70
2022-09-13T14:32:47.641Z,9.88
2022-09-13T14:35:23.576Z,13.68
2022-09-13T14:37:50.156Z,10.02
2022-09-13T14:40:18.436Z,9.48
2022-09-13T14:42:46.406Z,8.82
2022-09-13T14:45:17.930Z,9.05
2022-09-13T14:47:54.236Z,7.20
2022-09-13T14:50:24.050Z,5.35
2022-09-13T14:52:53.672Z,5.97
2022-09-13T14:55:48.232Z,7.68
2022-09-13T15:00:49.093Z,5.32
2022-09-13T15:03:16.667Z,7.73
2022-09-13T15:05:50.404Z,8.75
2022-09-13T15:08:35.349Z,6.93
2022-09-13T15:11:03.048Z,5.45
2022-09-13T15:13:30.170Z,8.60
2022-09-13T15:15:56.818Z,9.10
2022-09-13T15:18:36.261Z,7.18
2022-09-13T15:21:13.964Z,8.00
2022-09-13T15:23:41.587Z,6.25
2022-09-13T15:26:27.417Z,6.53
2022-09-13T15:28:56.887Z,7.18
2022-09-13T15:31:28.007Z,6.18
2022-09-13T15:34:16.503Z,5.32
2022-09-13T15:36:43.354Z,5.43
2022-09-13T15:39:09.865Z,4.50
2022-09-13T15:41:37.611Z,3.88
2022-09-13T15:44:06.392Z,6.57
2022-09-13T15:46:34.814Z,8.02
2022-09-13T15:49:05.737Z,5.03
2022-09-13T15:51:35.618Z,5.90
2022-09-13T15:54:10.596Z,7.87
2022-09-13T15:56:40.086Z,5.90
2022-09-13T15:59:06.825Z,5.55
2022-09-13T16:01:33.565Z,5.80
2022-09-13T16:04:03.907Z,5.63
2022-09-13T16:06:30.695Z,6.35
2022-09-13T16:08:57.425Z,7.78
2022-09-13T16:11:24.261Z,7.82
2022-09-13T16:13:50.806Z,4.90
2022-09-13T16:16:19.920Z,4.97
2022-09-13T16:18:46.477Z,4.85
2022-09-13T16:21:13.053Z,7.03
2022-09-13T16:23:39.788Z,6.97
2022-09-13T16:26:06.375Z,4.55
2022-09-13T16:28:35.538Z,7.05
2022-09-13T16:31:02.158Z,4.57
2022-09-13T16:33:28.836Z,7.32
2022-09-13T16:35:58.003Z,5.93
2022-09-13T16:38:28.408Z,5.15
2022-09-13T16:40:54.911Z,5.63
2022-09-13T16:43:21.461Z,4.07
2022-09-13T16:45:50.362Z,4.90
2022-09-13T16:48:16.898Z,7.38
2022-09-13T16:50:43.686Z,6.10
2022-09-13T16:53:10.271Z,5.13
2022-09-13T16:55:36.828Z,5.65
2022-09-13T16:58:03.515Z,11.50
2022-09-13T17:00:30.374Z,4.82
2022-09-13T17:02:57.182Z,5.03
2022-09-13T17:05:24.563Z,4.63
2022-09-13T17:07:51.864Z,5.70
2022-09-13T17:10:18.401Z,5.47
2022-09-13T17:12:45.008Z,5.00
2022-09-13T17:15:11.726Z,4.53
2022-09-13T17:17:38.279Z,3.88
2022-09-13T17:20:07.922Z,5.65
2022-09-13T17:22:34.495Z,6.80
2022-09-13T17:25:01.637Z,6.55
2022-09-13T17:27:28.179Z,7.53
2022-09-13T17:29:54.756Z,3.58
2022-09-13T17:32:21.422Z,4.78
2022-09-13T17:34:48.147Z,5.40
2022-09-13T17:37:14.744Z,5.70
2022-09-13T17:39:41.336Z,6.15
2022-09-13T17:42:07.885Z,4.47
2022-09-13T17:44:34.503Z,5.43
2022-09-13T17:47:02.379Z,4.97
2022-09-13T17:49:28.834Z,3.60
2022-09-13T17:51:56.393Z,3.67
2022-09-13T17:54:22.977Z,4.32
2022-09-13T17:56:50.511Z,2.85
2022-09-13T17:59:21.150Z,3.72
2022-09-13T18:01:49.279Z,4.35
2022-09-13T18:04:17.071Z,5.93
2022-09-13T18:06:44.402Z,3.47
2022-09-13T18:09:11.608Z,5.75
2022-09-13T18:11:38.159Z,3.00
2022-09-13T18:14:05.034Z,3.35
2022-09-13T18:16:31.688Z,5.60
2022-09-13T18:18:58.952Z,4.57
2022-09-13T18:24:28.668Z,5.22
2022-09-13T18:26:55.250Z,4.47
2022-09-13T18:32:24.567Z,4.90
2022-09-13T18:34:51.168Z,5.30
2022-09-13T18:37:17.805Z,5.82
2022-09-13T18:39:44.471Z,3.90
2022-09-13T18:42:11.190Z,4.10
2022-09-13T18:44:37.886Z,5.25
2022-09-13T18:47:06.325Z,6.00
2022-09-13T18:49:32.838Z,6.72
2022-09-13T18:51:59.650Z,6.10
2022-09-13T18:54:26.302Z,4.00
2022-09-13T18:56:53.660Z,4.78
2022-09-13T18:59:20.392Z,4.65
2022-09-13T19:01:49.430Z,4.53
2022-09-13T19:04:19.730Z,5.40
2022-09-13T19:06:48.299Z,4.85
2022-09-13T19:09:14.920Z,3.70
2022-09-13T19:11:47.300Z,4.20
2022-09-13T19:14:15.836Z,4.67
2022-09-13T19:16:42.605Z,4.43
2022-09-13T19:19:09.214Z,4.00
2022-09-13T19:21:36.055Z,3.88
2022-09-13T19:24:06.743Z,3.03
2022-09-13T19:29:06.116Z,4.03
2022-09-13T19:31:34.178Z,3.65
2022-09-13T19:34:04.377Z,4.07
2022-09-13T19:36:34.249Z,4.45
2022-09-13T19:39:04.136Z,3.38
2022-09-13T19:41:30.785Z,4.95
2022-09-13T19:44:00.088Z,3.60
2022-09-13T19:46:28.106Z,3.15
2022-09-13T19:48:55.907Z,3.90
2022-09-13T19:51:27.033Z,5.55
2022-09-13T19:53:57.609Z,4.05
2022-09-13T19:56:28.729Z,2.88
2022-09-13T19:58:55.690Z,3.47
2022-09-13T20:01:23.730Z,2.72
2022-09-13T20:03:57.865Z,5.70
2022-09-13T20:08:51.455Z,3.50
2022-09-13T20:11:18.561Z,3.30
2022-09-13T20:13:45.541Z,3.10
2022-09-13T20:16:32.413Z,3.47
2022-09-13T20:18:59.091Z,3.05
2022-09-13T20:21:26.527Z,3.05
2022-09-13T20:23:58.961Z,2.83
2022-09-13T20:26:26.188Z,4.03
2022-09-13T20:28:57.635Z,6.05
2022-09-13T20:31:25.344Z,2.28
2022-09-13T20:33:58.859Z,4.35
2022-09-13T20:36:26.063Z,2.70
2022-09-13T20:38:52.710Z,3.20
2022-09-13T20:41:19.453Z,5.45
2022-09-13T20:43:46.562Z,2.90
2022-09-13T20:46:14.414Z,6.57
2022-09-13T20:48:41.287Z,3.75
2022-09-13T20:51:10.073Z,4.03
2022-09-13T20:53:37.780Z,4.97
2022-09-13T20:56:09.317Z,2.65
2022-09-13T20:58:36.572Z,7.15
2022-09-13T21:01:04.586Z,4.22
2022-09-13T21:03:34.436Z,4.50
2022-09-13T21:06:01.696Z,3.65
2022-09-13T21:08:43.976Z,2.92
2022-09-13T21:11:15.230Z,2.60
2022-09-13T21:13:43.125Z,3.88
2022-09-13T21:16:11.602Z,5.15
2022-09-13T21:18:38.791Z,2.80
2022-09-13T21:21:06.271Z,3.30
2022-09-13T21:23:33.897Z,3.28
2022-09-13T21:26:04.536Z,3.20
2022-09-13T21:28:31.072Z,4.10
2022-09-13T21:31:01.253Z,3.92
2022-09-13T21:33:28.031Z,5.13
2022-09-13T21:35:58.843Z,3.38
2022-09-13T21:38:26.166Z,3.65
2022-09-13T21:40:56.235Z,2.10
2022-09-13T21:43:23.164Z,4.30
2022-09-13T21:45:49.848Z,2.95
2022-09-13T21:48:16.512Z,2.55
2022-09-13T21:50:43.052Z,2.83
2022-09-13T21:53:09.667Z,3.63
2022-09-13T21:55:40.576Z,2.72
2022-09-13T21:58:11.146Z,3.42
2022-09-13T22:00:39.071Z,3.65
2022-09-13T22:03:08.343Z,3.97
2022-09-13T22:05:34.916Z,4.05
2022-09-13T22:08:01.731Z,3.10
2022-09-13T22:10:28.269Z,3.63
2022-09-13T22:12:54.783Z,3.30
2022-09-13T22:15:21.498Z,3.70
2022-09-13T22:17:48.038Z,2.60
2022-09-13T22:20:14.635Z,4.00
2022-09-13T22:22:43.834Z,2.67
2022-09-13T22:25:10.548Z,2.08
2022-09-13T22:27:37.393Z,4.85
2022-09-13T22:30:05.479Z,3.20
2022-09-13T22:32:32.033Z,1.98
2022-09-13T22:34:58.706Z,3.33
2022-09-13T22:37:25.254Z,3.05
2022-09-13T22:39:52.764Z,2.40
2022-09-13T22:42:19.425Z,2.75
2022-09-13T22:44:45.996Z,2.58
2022-09-13T22:47:12.534Z,3.60
2022-09-13T22:49:39.243Z,2.70
2022-09-13T22:52:07.934Z,3.80
2022-09-13T22:54:35.161Z,2.30
2022-09-13T22:57:01.681Z,3.10
2022-09-13T22:59:28.430Z,2.97
2022-09-13T23:01:54.914Z,2.63
2022-09-13T23:04:21.679Z,3.28
2022-09-13T23:06:48.767Z,3.78
2022-09-13T23:09:18.129Z,2.10
2022-09-13T23:11:45.359Z,3.72
2022-09-13T23:14:13.003Z,3.55
2022-09-13T23:16:40.731Z,3.75
2022-09-13T23:19:07.406Z,3.30
2022-09-13T23:21:35.102Z,4.53
2022-09-13T23:24:02.110Z,3.83
2022-09-13T23:26:29.284Z,3.97
2022-09-13T23:28:57.071Z,3.97
2022-09-13T23:31:25.067Z,10.57
2022-09-13T23:33:53.442Z,3.00
2022-09-13T23:36:24.405Z,5.28
2022-09-13T23:38:52.752Z,5.68
2022-09-13T23:41:19.825Z,3.35
2022-09-13T23:43:46.883Z,4.07
2022-09-13T23:46:14.007Z,2.42
2022-09-13T23:48:43.091Z,3.92
2022-09-13T23:51:14.071Z,4.15
2022-09-13T23:53:41.214Z,4.38
2022-09-13T23:56:08.075Z,3.05
2022-09-13T23:58:35.269Z,7.18
